Time;durP1;ratioP1;P1;durP2;ratioP2;P2;SDS_P1;SDS_P2;PMS_P1;PMS_P2;Temp;Humidity;BMP_temperature;BMP_pressure;BME280_temperature;BME280_humidity;BME280_pressure;Samples;Min_cycle;Max_cycle;Signal;HPM_P1;HPM_P2
2022/02/13 00:01:02;;;;;;;7.18;0.82;;;21.50;87.20;;;;;;5053502;28;20459;-75
2022/02/13 00:03:28;;;;;;;1.85;0.80;;;21.50;87.30;;;;;;5052886;28;20040;-76
2022/02/13 00:05:54;;;;;;;5.07;0.82;;;21.40;87.20;;;;;;5052498;28;20037;-78
2022/02/13 00:08:20;;;;;;;1.63;0.68;;;21.50;87.30;;;;;;5053447;28;20086;-77
2022/02/13 00:10:48;;;;;;;2.70;0.80;;;21.50;87.40;;;;;;5052617;28;20119;-78
2022/02/13 00:13:16;;;;;;;1.60;0.70;;;21.40;87.40;;;;;;5053574;28;20045;-76
2022/02/13 00:15:41;;;;;;;2.47;0.73;;;21.40;87.30;;;;;;5052010;28;20515;-74
2022/02/13 00:18:07;;;;;;;2.92;0.45;;;21.40;87.40;;;;;;5052013;28;20147;-79
2022/02/13 00:20:35;;;;;;;1.73;0.70;;;21.40;87.50;;;;;;5053244;28;20037;-77
2022/02/13 00:23:01;;;;;;;3.35;1.65;;;21.40;87.50;;;;;;5066564;28;20056;-79
2022/02/13 00:25:26;;;;;;;1.60;0.73;;;21.40;87.50;;;;;;5052464;28;20198;-77
2022/02/13 00:27:52;;;;;;;0.77;0.40;;;21.40;87.60;;;;;;5052778;28;20037;-78
2022/02/13 00:30:18;;;;;;;1.65;0.75;;;21.40;87.60;;;;;;5052740;28;20841;-76
2022/02/13 00:32:44;;;;;;;3.00;1.15;;;21.40;87.60;;;;;;5052977;28;20116;-80
2022/02/13 00:35:14;;;;;;;1.60;0.60;;;21.40;87.70;;;;;;5053227;28;20037;-76
2022/02/13 00:37:40;;;;;;;1.70;0.98;;;21.30;87.70;;;;;;5035104;28;20029;-75
2022/02/13 00:40:07;;;;;;;1.63;0.73;;;21.30;87.70;;;;;;5051942;28;20061;-77
2022/02/13 00:42:35;;;;;;;2.22;0.63;;;21.30;87.70;;;;;;5052846;28;20033;-78
2022/02/13 00:45:02;;;;;;;1.67;0.88;;;21.30;87.80;;;;;;5051818;28;20464;-77
2022/02/13 00:47:28;;;;;;;1.80;0.50;;;21.30;87.80;;;;;;5052365;28;20556;-77
2022/02/13 00:49:53;;;;;;;2.75;1.00;;;21.30;87.80;;;;;;5052507;28;20025;-80
2022/02/13 00:52:19;;;;;;;1.33;0.57;;;21.30;87.80;;;;;;5051623;28;20489;-74
2022/02/13 00:54:44;;;;;;;1.90;0.95;;;21.30;87.80;;;;;;5066993;28;20033;-79
2022/02/13 00:57:12;;;;;;;1.50;0.35;;;21.30;87.80;;;;;;5051130;28;20103;-77
2022/02/13 00:59:38;;;;;;;1.00;0.60;;;21.30;87.80;;;;;;5051481;28;20033;-79
2022/02/13 01:02:06;;;;;;;1.38;0.60;;;21.30;87.90;;;;;;5051742;28;20475;-78
2022/02/13 01:04:32;;;;;;;1.25;0.60;;;21.30;87.90;;;;;;5051794;28;20112;-80
2022/02/13 01:06:57;;;;;;;0.88;0.40;;;21.30;87.90;;;;;;5051571;28;20025;-78
2022/02/13 01:09:23;;;;;;;0.75;0.35;;;21.30;87.90;;;;;;5052679;28;20066;-79
2022/02/13 01:11:49;;;;;;;1.33;0.80;;;21.30;87.90;;;;;;5051726;28;20044;-78
2022/02/13 01:14:15;;;;;;;1.35;0.80;;;21.30;87.90;;;;;;5051056;28;20045;-78
2022/02/13 01:16:41;;;;;;;1.25;0.80;;;21.20;87.90;;;;;;5032371;28;20040;-77
2022/02/13 01:19:07;;;;;;;2.10;0.70;;;21.20;87.90;;;;;;5051953;28;20037;-81
2022/02/13 01:21:32;;;;;;;1.58;0.85;;;21.20;87.90;;;;;;5050663;28;20084;-77
2022/02/13 01:24:00;;;;;;;1.83;0.80;;;21.20;88.00;;;;;;5050852;28;20033;-79
2022/02/13 01:26:28;;;;;;;2.00;0.90;;;21.20;88.00;;;;;;5067496;28;20040;-77
2022/02/13 01:28:56;;;;;;;1.38;0.60;;;21.20;88.10;;;;;;5050792;28;20440;-76
2022/02/13 01:31:21;;;;;;;1.40;0.70;;;21.20;88.10;;;;;;5050731;28;20067;-80
2022/02/13 01:33:47;;;;;;;1.30;0.43;;;21.20;88.20;;;;;;5051049;28;20390;-78
2022/02/13 01:36:13;;;;;;;1.92;0.55;;;21.20;88.10;;;;;;5051382;28;20039;-80
2022/02/13 01:38:38;;;;;;;2.83;1.38;;;21.20;88.20;;;;;;5051716;28;20028;-78
2022/02/13 01:41:05;;;;;;;1.88;0.95;;;21.20;88.20;;;;;;5051175;28;20060;-77
2022/02/13 01:43:36;;;;;;;0.88;0.60;;;21.20;88.20;;;;;;5033447;28;20465;-79
2022/02/13 01:46:04;;;;;;;0.80;0.32;;;21.20;88.50;;;;;;5051213;28;21563;-78
2022/02/13 01:48:30;;;;;;;0.52;0.35;;;21.10;88.10;;;;;;5051044;28;20036;-78
2022/02/13 01:50:56;;;;;;;2.35;1.13;;;21.10;88.20;;;;;;5051331;28;20128;-77
2022/02/13 01:53:25;;;;;;;0.60;0.52;;;21.10;88.20;;;;;;5050506;28;20226;-79
2022/02/13 01:55:51;;;;;;;1.63;0.60;;;21.10;88.20;;;;;;5051527;28;20045;-78
2022/02/13 01:58:16;;;;;;;1.33;0.60;;;21.10;88.20;;;;;;5050867;28;20032;-78
2022/02/13 02:00:42;;;;;;;1.55;0.50;;;21.10;88.90;;;;;;5042778;28;20036;-77
2022/02/13 02:03:10;;;;;;;1.10;0.50;;;21.10;88.30;;;;;;5067254;28;20125;-79
2022/02/13 02:05:36;;;;;;;1.10;0.60;;;21.10;88.30;;;;;;5051576;28;20024;-78
2022/02/13 02:08:03;;;;;;;1.17;0.55;;;21.10;88.40;;;;;;5050894;28;20028;-79
2022/02/13 02:10:32;;;;;;;3.10;0.55;;;21.10;88.30;;;;;;5050596;28;20020;-79
2022/02/13 02:13:00;;;;;;;1.52;0.40;;;21.10;88.40;;;;;;5050826;28;20119;-79
2022/02/13 02:15:28;;;;;;;1.90;0.90;;;21.10;88.40;;;;;;5050071;28;20043;-79
2022/02/13 02:17:56;;;;;;;1.75;0.52;;;21.10;88.40;;;;;;5050780;28;20055;-80
2022/02/13 02:20:22;;;;;;;2.13;0.68;;;21.10;88.40;;;;;;5050446;28;20449;-74
2022/02/13 02:22:51;;;;;;;2.15;0.73;;;21.00;88.30;;;;;;5051085;28;20025;-78
2022/02/13 02:25:19;;;;;;;0.90;0.55;;;21.00;88.40;;;;;;5050585;28;20036;-77
2022/02/13 02:27:47;;;;;;;2.17;0.70;;;21.00;88.40;;;;;;5051184;28;20055;-79
2022/02/13 02:30:15;;;;;;;1.17;0.45;;;21.00;88.40;;;;;;5052533;28;20360;-80
2022/02/13 02:32:42;;;;;;;0.80;0.43;;;21.00;88.50;;;;;;5035330;28;20059;-76
2022/02/13 02:35:08;;;;;;;0.50;0.32;;;21.00;88.50;;;;;;5054319;28;20655;-77
2022/02/13 02:37:34;;;;;;;0.93;0.50;;;21.00;88.50;;;;;;5070332;28;20125;-77
2022/02/13 02:40:02;;;;;;;2.42;0.43;;;21.00;88.50;;;;;;5055179;28;20115;-78
2022/02/13 02:42:30;;;;;;;3.30;0.63;;;21.00;88.60;;;;;;5054300;28;20029;-78
2022/02/13 02:44:56;;;;;;;3.30;1.10;;;21.00;88.50;;;;;;5054441;28;20040;-79
2022/02/13 02:47:24;;;;;;;1.90;0.80;;;21.00;88.50;;;;;;5055234;28;20413;-80
2022/02/13 02:49:49;;;;;;;1.08;0.52;;;20.90;88.50;;;;;;5055115;28;20029;-80
2022/02/13 02:52:18;;;;;;;2.60;0.73;;;21.00;88.60;;;;;;5054278;28;20413;-78
2022/02/13 02:54:45;;;;;;;2.47;1.35;;;20.90;88.60;;;;;;5054804;28;21728;-77
2022/02/13 02:57:13;;;;;;;1.88;0.90;;;20.90;88.60;;;;;;5055152;28;20056;-79
2022/02/13 02:59:39;;;;;;;1.05;0.73;;;20.90;88.60;;;;;;5054895;28;20029;-77
2022/02/13 03:02:05;;;;;;;0.90;0.45;;;20.90;89.20;;;;;;5068706;28;20128;-77
2022/02/13 03:04:35;;;;;;;1.02;0.75;;;20.90;88.60;;;;;;5068902;28;20090;-78
2022/02/13 03:07:01;;;;;;;0.70;0.30;;;20.90;88.60;;;;;;5053784;28;20361;-79
2022/02/13 03:09:26;;;;;;;1.25;0.50;;;20.90;88.60;;;;;;5070120;28;20025;-77
2022/02/13 03:11:52;;;;;;;2.10;0.63;;;20.90;88.70;;;;;;5054032;28;20090;-79
2022/02/13 03:14:17;;;;;;;1.45;1.13;;;20.90;88.60;;;;;;5069653;28;20033;-78
2022/02/13 03:16:43;;;;;;;1.40;0.43;;;20.90;88.70;;;;;;5034894;28;20033;-79
2022/02/13 03:19:09;;;;;;;2.13;0.60;;;20.90;88.70;;;;;;5054233;28;20033;-78
2022/02/13 03:21:37;;;;;;;2.67;0.50;;;20.90;88.70;;;;;;5053757;28;20036;-78
2022/02/13 03:24:07;;;;;;;1.20;1.00;;;20.80;88.70;;;;;;5052983;28;20106;-77
2022/02/13 03:26:35;;;;;;;1.55;0.95;;;20.80;88.70;;;;;;5053662;28;20113;-78
2022/02/13 03:29:03;;;;;;;1.17;0.47;;;20.80;88.80;;;;;;5053892;28;20036;-78
2022/02/13 03:31:28;;;;;;;1.85;0.80;;;20.80;88.80;;;;;;5052285;28;20045;-78
2022/02/13 03:33:54;;;;;;;0.68;0.43;;;20.80;88.80;;;;;;5053684;28;20093;-76
2022/02/13 03:36:20;;;;;;;1.15;0.70;;;20.80;88.80;;;;;;5053554;28;21677;-80
2022/02/13 03:38:46;;;;;;;1.10;0.50;;;20.80;88.90;;;;;;5053054;28;20036;-77
2022/02/13 03:41:11;;;;;;;1.50;0.57;;;20.80;88.90;;;;;;5034957;28;20051;-79
2022/02/13 03:43:37;;;;;;;1.05;0.63;;;20.80;88.90;;;;;;5069670;28;20155;-80
2022/02/13 03:46:03;;;;;;;2.45;0.90;;;20.80;88.90;;;;;;5054537;28;20033;-75
2022/02/13 03:48:28;;;;;;;0.80;0.55;;;20.80;88.90;;;;;;5053677;28;20369;-78
2022/02/13 03:50:54;;;;;;;1.73;1.23;;;20.70;88.90;;;;;;5033314;28;20037;-76
2022/02/13 03:53:19;;;;;;;2.00;1.65;;;20.70;88.90;;;;;;5052714;28;20037;-78
2022/02/13 03:55:45;;;;;;;0.43;0.35;;;20.70;88.90;;;;;;5068450;28;20369;-77
2022/02/13 03:58:13;;;;;;;0.68;0.47;;;20.70;88.90;;;;;;5036355;28;20601;-78
2022/02/13 04:00:38;;;;;;;0.47;0.45;;;20.70;88.90;;;;;;5053204;28;20044;-80
2022/02/13 04:03:04;;;;;;;2.53;0.95;;;20.70;89.00;;;;;;5053156;28;20631;-78
2022/02/13 04:05:30;;;;;;;3.45;0.63;;;20.70;89.00;;;;;;5052943;28;20033;-79
2022/02/13 04:07:57;;;;;;;2.22;0.57;;;20.70;89.00;;;;;;5053623;28;20347;-78
2022/02/13 04:10:23;;;;;;;0.77;0.50;;;20.70;89.00;;;;;;5067552;28;20467;-77
2022/02/13 04:12:49;;;;;;;1.55;0.30;;;20.70;89.00;;;;;;5034135;28;20032;-80
2022/02/13 04:15:16;;;;;;;1.50;1.02;;;20.70;89.00;;;;;;5052570;28;20032;-77
2022/02/13 04:17:42;;;;;;;0.70;0.40;;;20.70;89.00;;;;;;5053439;28;20025;-79
2022/02/13 04:20:10;;;;;;;1.80;0.70;;;20.70;89.00;;;;;;5052733;28;20459;-78
2022/02/13 04:22:36;;;;;;;0.88;0.47;;;20.70;89.10;;;;;;5067949;28;20037;-80
2022/02/13 04:25:03;;;;;;;0.75;0.50;;;20.70;89.10;;;;;;5067902;28;20042;-76
2022/02/13 04:27:31;;;;;;;1.27;0.50;;;20.70;89.10;;;;;;5052669;28;20044;-79
2022/02/13 04:29:57;;;;;;;0.52;0.47;;;20.70;89.10;;;;;;5052604;28;20039;-77
2022/02/13 04:32:22;;;;;;;1.05;0.55;;;20.60;89.10;;;;;;5067437;28;20053;-79
2022/02/13 04:34:48;;;;;;;0.35;0.30;;;20.70;89.20;;;;;;5051702;28;20025;-75
2022/02/13 04:37:14;;;;;;;1.75;0.63;;;20.60;89.20;;;;;;5052854;28;20448;-80
2022/02/13 04:39:43;;;;;;;2.58;0.38;;;20.60;89.10;;;;;;5052780;28;20093;-80
2022/02/13 04:42:12;;;;;;;0.77;0.47;;;20.60;89.10;;;;;;5052642;28;20036;-76
2022/02/13 04:44:38;;;;;;;0.52;0.30;;;20.60;89.10;;;;;;5051983;28;20147;-79
2022/02/13 04:47:06;;;;;;;0.45;0.40;;;20.60;89.10;;;;;;5053372;28;20523;-79
2022/02/13 04:49:32;;;;;;;0.38;0.30;;;20.60;89.20;;;;;;5052921;28;20047;-77
2022/02/13 04:51:57;;;;;;;0.63;0.45;;;20.60;89.20;;;;;;5051896;28;20032;-76
2022/02/13 04:54:23;;;;;;;0.73;0.40;;;20.60;89.20;;;;;;5051363;28;20032;-80
2022/02/13 04:56:53;;;;;;;1.98;0.40;;;20.60;89.30;;;;;;5034708;28;20456;-76
2022/02/13 04:59:19;;;;;;;1.25;0.68;;;20.60;89.20;;;;;;5052578;28;20040;-77
2022/02/13 05:01:45;;;;;;;1.13;0.50;;;20.60;89.20;;;;;;5051661;28;20059;-79
2022/02/13 05:04:10;;;;;;;0.35;0.30;;;20.60;89.30;;;;;;5051158;28;20033;-77
2022/02/13 05:06:38;;;;;;;1.08;0.55;;;20.60;89.30;;;;;;5051866;28;20048;-76
2022/02/13 05:09:08;;;;;;;0.88;0.50;;;20.60;89.20;;;;;;5051081;28;20033;-77
2022/02/13 05:11:37;;;;;;;1.10;0.65;;;20.60;89.30;;;;;;5052029;28;20033;-75
2022/02/13 05:14:02;;;;;;;0.52;0.35;;;20.60;89.30;;;;;;5052172;28;20372;-79
2022/02/13 05:16:30;;;;;;;1.17;0.60;;;20.60;90.00;;;;;;5051880;28;20039;-77
2022/02/13 05:18:56;;;;;;;0.50;0.30;;;20.60;89.40;;;;;;5051881;28;20040;-77
2022/02/13 05:21:24;;;;;;;0.45;0.25;;;20.60;90.00;;;;;;5050675;28;20041;-79
2022/02/13 05:23:49;;;;;;;0.50;0.50;;;20.60;89.40;;;;;;5051695;28;20028;-79
2022/02/13 05:26:15;;;;;;;0.55;0.30;;;20.60;89.40;;;;;;5051264;28;20033;-80
2022/02/13 05:28:41;;;;;;;0.60;0.30;;;20.60;89.50;;;;;;5051456;28;20052;-77
2022/02/13 05:31:06;;;;;;;1.42;0.50;;;20.60;89.40;;;;;;5051089;28;20045;-78
2022/02/13 05:33:34;;;;;;;2.67;0.75;;;20.60;89.50;;;;;;5066696;28;20032;-78
2022/02/13 05:36:02;;;;;;;1.00;0.47;;;20.60;89.40;;;;;;5051826;28;20044;-80
2022/02/13 05:38:28;;;;;;;0.73;0.40;;;20.60;89.50;;;;;;5051992;28;20036;-79
2022/02/13 05:40:53;;;;;;;1.10;0.38;;;20.60;89.50;;;;;;5050379;28;20032;-75
2022/02/13 05:43:19;;;;;;;0.60;0.38;;;20.60;89.50;;;;;;5042893;28;20028;-79
2022/02/13 05:45:47;;;;;;;0.65;0.50;;;20.60;89.40;;;;;;5051639;28;20056;-78
2022/02/13 05:48:13;;;;;;;0.38;0.20;;;20.60;89.40;;;;;;5052414;28;20190;-78
2022/02/13 05:50:41;;;;;;;0.65;0.40;;;20.70;89.50;;;;;;5051206;28;20024;-77
2022/02/13 05:53:07;;;;;;;0.88;0.22;;;20.70;89.50;;;;;;5050817;28;20032;-78
2022/02/13 05:55:32;;;;;;;1.50;0.60;;;20.60;89.40;;;;;;5051926;28;20043;-79
2022/02/13 05:57:58;;;;;;;0.50;0.40;;;20.70;89.50;;;;;;5050009;28;20097;-79
2022/02/13 06:00:24;;;;;;;1.00;0.40;;;20.70;89.50;;;;;;5050870;28;20097;-78
2022/02/13 06:02:49;;;;;;;2.53;1.48;;;20.70;89.40;;;;;;5051191;28;20056;-78
2022/02/13 06:05:15;;;;;;;0.60;0.50;;;20.70;89.30;;;;;;5030349;28;20037;-78
2022/02/13 06:07:44;;;;;;;0.63;0.40;;;20.70;89.30;;;;;;5051197;28;20435;-80
2022/02/13 06:10:14;;;;;;;0.55;0.32;;;20.70;89.30;;;;;;5050956;28;20032;-79
2022/02/13 06:12:44;;;;;;;1.23;0.70;;;20.70;89.30;;;;;;5051615;28;20039;-77
2022/02/13 06:15:10;;;;;;;0.40;0.22;;;20.70;89.20;;;;;;5051020;28;20037;-77
2022/02/13 06:17:36;;;;;;;0.95;0.55;;;20.70;89.20;;;;;;5051160;28;20059;-76
2022/02/13 06:20:02;;;;;;;0.93;0.50;;;20.70;89.10;;;;;;5050644;28;20120;-80
2022/02/13 06:22:28;;;;;;;1.25;0.50;;;20.70;89.00;;;;;;5052234;28;20501;-77
2022/02/13 06:24:53;;;;;;;0.70;0.50;;;20.80;89.00;;;;;;5050691;28;20048;-79
2022/02/13 06:27:19;;;;;;;1.48;0.70;;;20.80;89.10;;;;;;5051333;28;20041;-78
2022/02/13 06:29:45;;;;;;;1.23;0.30;;;20.80;89.10;;;;;;5067621;28;20785;-79
2022/02/13 06:32:13;;;;;;;1.52;0.60;;;20.80;89.00;;;;;;5049945;28;20037;-80
2022/02/13 06:34:39;;;;;;;0.57;0.30;;;20.80;89.00;;;;;;5066701;28;20033;-78
2022/02/13 06:37:06;;;;;;;1.88;0.45;;;20.80;89.00;;;;;;5050699;28;20105;-76
2022/02/13 06:39:32;;;;;;;0.88;0.40;;;20.80;88.90;;;;;;5051146;28;20029;-78
2022/02/13 06:41:58;;;;;;;0.77;0.65;;;20.80;88.90;;;;;;5051048;28;20562;-78
2022/02/13 06:44:23;;;;;;;0.32;0.30;;;20.80;88.90;;;;;;5051090;28;20842;-77
2022/02/13 06:46:49;;;;;;;0.70;0.32;;;20.80;88.80;;;;;;5051221;28;20096;-77
2022/02/13 06:49:15;;;;;;;0.50;0.40;;;20.80;88.90;;;;;;5050991;28;20873;-79
2022/02/13 06:51:40;;;;;;;1.15;0.60;;;20.80;89.50;;;;;;5051307;28;20083;-77
2022/02/13 06:54:08;;;;;;;3.00;0.93;;;20.80;88.80;;;;;;5051405;28;20048;-79
2022/02/13 06:56:34;;;;;;;0.80;0.40;;;20.90;88.80;;;;;;5051308;28;20123;-78
2022/02/13 06:58:59;;;;;;;1.23;0.60;;;20.80;88.70;;;;;;5050904;28;20041;-73
2022/02/13 07:01:27;;;;;;;0.52;0.47;;;20.90;88.70;;;;;;5066182;28;20072;-77
2022/02/13 07:03:52;;;;;;;0.22;0.20;;;20.90;88.70;;;;;;5050901;28;20036;-76
2022/02/13 07:06:20;;;;;;;0.52;0.30;;;20.90;88.60;;;;;;5051829;28;20029;-77
2022/02/13 07:08:46;;;;;;;0.88;0.35;;;20.90;88.60;;;;;;5051726;28;20055;-79
2022/02/13 07:11:11;;;;;;;1.33;0.50;;;20.90;88.60;;;;;;5050305;28;20033;-77
2022/02/13 07:13:39;;;;;;;1.95;0.28;;;20.90;88.50;;;;;;5050653;28;20537;-80
2022/02/13 07:16:05;;;;;;;0.93;0.50;;;20.90;88.60;;;;;;5040189;28;20043;-79
2022/02/13 07:18:31;;;;;;;2.53;0.50;;;20.90;88.60;;;;;;5035732;28;20120;-79
2022/02/13 07:20:56;;;;;;;1.15;0.65;;;20.90;88.50;;;;;;5053486;28;20033;-79
2022/02/13 07:23:26;;;;;;;1.75;0.25;;;20.90;88.50;;;;;;5055128;28;21576;-80
2022/02/13 07:25:57;;;;;;;0.47;0.47;;;20.90;88.40;;;;;;5053798;28;20647;-78
2022/02/13 07:31:09;;;;;;;0.80;0.35;;;20.90;88.40;;;;;;5054289;28;20052;-78
2022/02/13 07:33:35;;;;;;;0.40;0.20;;;21.00;88.50;;;;;;5054354;28;20025;-79
2022/02/13 07:36:03;;;;;;;1.58;0.68;;;21.00;88.40;;;;;;5054192;28;20029;-79
2022/02/13 07:38:28;;;;;;;1.60;0.40;;;21.00;88.40;;;;;;5055026;28;20039;-78
2022/02/13 07:40:54;;;;;;;0.80;0.40;;;21.00;88.40;;;;;;5069144;28;20037;-81
2022/02/13 07:43:19;;;;;;;0.82;0.30;;;21.00;88.30;;;;;;5069914;28;20028;-77
2022/02/13 07:45:45;;;;;;;0.95;0.55;;;21.00;88.30;;;;;;5054333;28;20519;-80
2022/02/13 07:48:11;;;;;;;1.38;0.35;;;21.00;88.30;;;;;;5052928;28;20031;-78
2022/02/13 07:50:39;;;;;;;0.88;0.32;;;21.10;88.30;;;;;;5053898;28;20029;-79
2022/02/13 07:53:04;;;;;;;1.10;0.40;;;21.10;88.20;;;;;;5053663;28;20510;-76
2022/02/13 07:55:32;;;;;;;0.82;0.30;;;21.10;88.20;;;;;;5053102;28;20032;-80
2022/02/13 07:58:00;;;;;;;0.73;0.30;;;21.10;88.20;;;;;;5053548;28;20809;-80
2022/02/13 08:00:25;;;;;;;0.47;0.32;;;21.10;88.20;;;;;;5053152;28;20033;-77
2022/02/13 08:02:51;;;;;;;0.80;0.22;;;21.10;88.20;;;;;;5053099;28;20029;-80
2022/02/13 08:05:18;;;;;;;0.20;0.20;;;21.10;88.20;;;;;;5053732;28;20025;-77
2022/02/13 08:07:50;;;;;;;1.02;0.47;;;21.10;88.10;;;;;;5070261;28;20029;-76
2022/02/13 08:10:19;;;;;;;0.47;0.25;;;21.20;88.20;;;;;;5052555;28;20040;-80
2022/02/13 08:12:46;;;;;;;0.85;0.35;;;21.20;88.20;;;;;;5034936;28;20040;-76
2022/02/13 08:15:15;;;;;;;0.30;0.28;;;21.20;88.10;;;;;;5052356;28;20119;-77
2022/02/13 08:17:40;;;;;;;0.85;0.50;;;21.20;88.10;;;;;;5052333;28;20037;-80
2022/02/13 08:20:13;;;;;;;1.92;0.50;;;21.20;88.10;;;;;;5053370;28;20036;-77
2022/02/13 08:22:39;;;;;;;0.60;0.30;;;21.20;88.00;;;;;;5053080;28;20039;-77
2022/02/13 08:25:05;;;;;;;0.82;0.35;;;21.20;88.00;;;;;;5052184;28;20956;-77
2022/02/13 08:27:31;;;;;;;0.35;0.30;;;21.20;87.90;;;;;;5034098;28;20625;-78
2022/02/13 08:29:59;;;;;;;0.45;0.30;;;21.20;87.90;;;;;;5052818;28;20036;-77
2022/02/13 08:32:26;;;;;;;0.57;0.45;;;21.20;88.50;;;;;;5052466;28;20039;-80
2022/02/13 08:34:53;;;;;;;0.52;0.30;;;21.30;87.90;;;;;;5051879;28;20057;-79
2022/02/13 08:37:19;;;;;;;0.57;0.43;;;21.30;87.90;;;;;;5053786;28;20021;-77
2022/02/13 08:39:45;;;;;;;0.98;0.52;;;21.30;88.00;;;;;;5067802;28;20039;-79
2022/02/13 08:42:11;;;;;;;0.20;0.20;;;21.30;88.00;;;;;;5053190;28;21942;-79
2022/02/13 08:44:38;;;;;;;1.35;0.20;;;21.30;88.00;;;;;;5051899;28;20182;-81
2022/02/13 08:47:03;;;;;;;0.40;0.40;;;21.30;88.00;;;;;;5067846;28;20075;-76
2022/02/13 08:49:31;;;;;;;0.22;0.20;;;21.30;87.90;;;;;;5051918;28;20037;-78
2022/02/13 08:51:57;;;;;;;0.55;0.40;;;21.30;87.90;;;;;;5068282;28;20040;-80
2022/02/13 08:54:25;;;;;;;0.15;0.15;;;21.30;88.00;;;;;;5067759;28;20029;-79
2022/02/13 08:56:55;;;;;;;0.60;0.50;;;21.30;87.90;;;;;;5052442;28;20036;-77
2022/02/13 08:59:23;;;;;;;0.43;0.30;;;21.40;87.90;;;;;;5051456;28;20045;-79
2022/02/13 09:01:49;;;;;;;0.55;0.30;;;21.40;88.00;;;;;;5032169;28;20064;-76
2022/02/13 09:04:15;;;;;;;1.35;1.25;;;21.40;87.90;;;;;;5068135;28;21829;-78
2022/02/13 09:06:43;;;;;;;0.70;0.50;;;21.40;87.90;;;;;;5067699;28;20043;-77
2022/02/13 09:09:09;;;;;;;0.50;0.20;;;21.40;87.90;;;;;;5033620;28;20032;-82
2022/02/13 09:11:36;;;;;;;0.77;0.40;;;21.50;87.90;;;;;;5051842;28;20063;-74
2022/02/13 09:14:04;;;;;;;1.48;0.60;;;21.50;87.80;;;;;;5067475;28;20035;-76
2022/02/13 09:16:32;;;;;;;1.83;1.10;;;21.50;75.20;;;;;;5051530;28;20033;-77
2022/02/13 09:19:00;;;;;;;4.05;0.75;;;21.60;68.40;;;;;;5054063;28;20060;-79
2022/02/13 09:21:26;;;;;;;1.98;0.60;;;21.60;79.10;;;;;;5066515;28;20091;-78
2022/02/13 09:23:54;;;;;;;2.50;1.02;;;21.60;78.60;;;;;;5053193;28;21730;-79
2022/02/13 09:26:20;;;;;;;2.33;1.15;;;21.50;79.50;;;;;;5051434;28;20504;-77
2022/02/13 09:28:47;;;;;;;2.65;0.90;;;21.50;80.20;;;;;;5050612;28;20044;-79
2022/02/13 09:31:16;;;;;;;3.10;0.52;;;21.50;80.90;;;;;;5051709;28;20074;-78
2022/02/13 09:33:41;;;;;;;1.33;0.73;;;21.50;81.40;;;;;;5052269;28;20059;-77
2022/02/13 09:36:07;;;;;;;1.08;0.82;;;21.50;81.90;;;;;;5051494;28;20056;-77
2022/02/13 09:38:32;;;;;;;1.95;0.63;;;21.50;82.20;;;;;;5066770;28;20539;-76
2022/02/13 09:41:04;;;;;;;1.45;0.50;;;21.50;82.50;;;;;;5050556;28;20035;-78
2022/02/13 09:43:32;;;;;;;2.63;1.05;;;21.50;82.80;;;;;;5051377;28;20098;-77
2022/02/13 09:46:00;;;;;;;1.95;0.40;;;21.50;83.10;;;;;;5051286;28;20524;-76
2022/02/13 09:48:28;;;;;;;1.73;0.50;;;21.50;83.30;;;;;;5051204;28;20040;-80
2022/02/13 09:50:55;;;;;;;0.80;0.50;;;21.50;83.40;;;;;;5066555;28;20033;-78
2022/02/13 09:53:21;;;;;;;4.47;0.50;;;21.50;83.50;;;;;;5049893;28;20103;-76
2022/02/13 09:55:47;;;;;;;1.33;0.40;;;21.60;83.70;;;;;;5050557;28;20036;-78
2022/02/13 09:58:15;;;;;;;4.25;1.13;;;21.60;83.70;;;;;;5050481;28;20028;-76
2022/02/13 10:00:50;;;;;;;3.65;1.35;;;21.60;83.90;;;;;;5050520;28;20044;-77
2022/02/13 10:03:23;;;;;;;1.70;1.25;;;21.60;84.30;;;;;;5067076;28;20408;-76
2022/02/13 10:05:50;;;;;;;1.23;0.75;;;21.60;84.30;;;;;;5051652;28;20020;-74
2022/02/13 10:08:32;;;;;;;1.95;0.65;;;21.70;84.30;;;;;;5051629;28;20475;-76
2022/02/13 10:11:20;;;;;;;4.07;1.30;;;21.70;83.70;;;;;;5050110;28;20047;-75
2022/02/13 10:13:45;;;;;;;4.30;1.05;;;21.70;83.40;;;;;;5050248;28;20143;-77
2022/02/13 10:16:15;;;;;;;11.10;1.27;;;21.70;83.30;;;;;;5065958;28;20028;-76
2022/02/13 10:18:57;;;;;;;2.08;0.70;;;21.70;83.20;;;;;;5050324;28;20029;-73
2022/02/13 10:21:33;;;;;;;5.45;1.25;;;21.70;83.20;;;;;;5050247;28;20021;-75
2022/02/13 10:24:30;;;;;;;5.10;0.75;;;21.80;83.20;;;;;;5065813;28;20067;-75
2022/02/13 10:26:56;;;;;;;1.55;0.82;;;21.80;83.20;;;;;;5050442;28;20056;-74
2022/02/13 10:29:27;;;;;;;6.70;1.27;;;21.80;82.90;;;;;;5051195;28;20135;-76
2022/02/13 10:32:07;;;;;;;7.30;1.17;;;21.80;82.70;;;;;;5050686;28;20060;-76
2022/02/13 10:34:33;;;;;;;6.90;1.40;;;21.90;82.70;;;;;;5050567;28;20039;-77
2022/02/13 10:36:58;;;;;;;2.25;0.77;;;21.90;82.50;;;;;;5051088;28;20028;-75
2022/02/13 10:39:24;;;;;;;5.03;1.63;;;21.90;82.50;;;;;;5049800;28;20040;-78
2022/02/13 10:41:53;;;;;;;4.30;1.88;;;21.90;82.30;;;;;;5050786;28;20033;-77
2022/02/13 10:44:32;;;;;;;6.80;1.23;;;21.90;82.30;;;;;;5032998;28;20083;-76
2022/02/13 10:47:02;;;;;;;4.15;1.40;;;;;;;;;;5050116;28;20029;-78
2022/02/13 10:49:30;;;;;;;3.28;0.85;;;;;;;;;;5065469;28;20071;-77
2022/02/13 10:51:56;;;;;;;6.18;1.23;;;;;;;;;;5069654;28;20896;-77
2022/02/13 10:54:22;;;;;;;6.32;1.20;;;;;;;;;;5053533;28;20449;-78
2022/02/13 10:56:51;;;;;;;5.05;0.80;;;;;;;;;;5053777;28;20423;-76
2022/02/13 10:59:19;;;;;;;3.38;1.02;;;;;;;;;;5070298;28;20183;-79
2022/02/13 11:01:49;;;;;;;4.57;1.15;;;;;;;;;;5069127;28;21180;-74
2022/02/13 11:04:15;;;;;;;3.70;1.30;;;;;;;;;;5053830;28;20088;-76
2022/02/13 11:06:41;;;;;;;3.80;0.80;;;;;;;;;;5069526;28;20461;-77
2022/02/13 11:09:13;;;;;;;7.63;1.17;;;;;;;;;;5054797;28;20039;-75
2022/02/13 11:11:39;;;;;;;;;;;;;;;;;;5069243;28;20047;-76
2022/02/13 11:14:06;;;;;;;2.65;0.73;;;;;;;;;;5068770;28;21537;-77
2022/02/13 11:16:34;;;;;;;2.33;0.88;;;;;;;;;;5053243;28;20401;-76
2022/02/13 11:19:02;;;;;;;4.68;1.33;;;;;;;;;;5069369;28;20036;-78
2022/02/13 11:21:31;;;;;;;2.92;1.23;;;;;;;;;;5069064;28;20032;-75
2022/02/13 11:23:58;;;;;;;3.08;1.10;;;;;;;;;;5053211;28;20104;-77
2022/02/13 11:26:43;;;;;;;7.10;2.65;;;;;;;;;;5053512;28;20025;-78
2022/02/13 11:29:10;;;;;;;5.15;1.35;;;;;;;;;;5053700;28;20032;-76
2022/02/13 11:31:40;;;;;;;5.85;1.60;;;;;;;;;;5069028;28;20033;-76
2022/02/13 11:34:21;;;;;;;3.25;1.23;;;;;;;;;;5053122;28;20338;-79
2022/02/13 11:36:48;;;;;;;4.07;1.20;;;;;;;;;;5052997;28;20052;-75
2022/02/13 11:39:35;;;;;;;2.95;1.10;;;;;;;;;;5053018;28;20036;-76
2022/02/13 11:42:06;;;;;;;2.20;1.05;;;;;;;;;;5045420;28;20105;-77
2022/02/13 11:44:40;;;;;;;1.85;1.02;;;;;;;;;;5053161;28;20514;-75
2022/02/13 11:47:07;;;;;;;2.22;1.27;;;;;;;;;;5067191;28;20441;-75
2022/02/13 11:49:53;;;;;;;6.90;1.95;;;;;;;;;;5068563;28;20029;-78
2022/02/13 11:52:30;;;;;;;3.97;1.65;;;;;;;;;;5053120;28;20032;-78
2022/02/13 11:54:57;;;;;;;3.90;1.20;;;;;;;;;;5053292;28;20087;-75
2022/02/13 11:57:29;;;;;;;3.47;1.67;;;;;;;;;;5053193;28;20043;-76
2022/02/13 11:59:55;;;;;;;1.55;0.70;;;;;;;;;;5069746;28;20028;-76
2022/02/13 12:02:30;;;;;;;2.58;1.05;;;;;;;;;;5050593;28;20099;-74
2022/02/13 12:05:11;;;;;;;1.98;0.80;;;;;;;;;;5052705;28;20029;-75
2022/02/13 12:07:43;;;;;;;6.32;1.02;;;;;;;;;;5068490;28;20032;-78
2022/02/13 12:10:10;;;;;;;3.75;0.70;;;;;;;;;;5052552;28;20039;-75
2022/02/13 12:12:42;;;;;;;4.88;1.20;;;;;;;;;;5052474;28;20036;-76
2022/02/13 12:15:12;;;;;;;6.40;0.98;;;;;;;;;;5052753;28;20158;-77
2022/02/13 12:17:38;;;;;;;4.97;1.08;;;;;;;;;;5052350;28;20040;-78
2022/02/13 12:20:06;;;;;;;6.32;1.50;;;;;;;;;;5053380;28;20029;-76
2022/02/13 12:22:35;;;;;;;1.65;0.70;;;;;;;;;;5051560;28;20590;-77
2022/02/13 12:25:02;;;;;;;3.00;1.23;;;;;;;;;;5052408;28;20032;-75
2022/02/13 12:27:28;;;;;;;2.20;0.93;;;;;;;;;;5052709;28;20456;-75
2022/02/13 12:30:03;;;;;;;1.15;0.68;;;;;;;;;;5068116;28;20087;-75
2022/02/13 12:32:30;;;;;;;1.90;0.80;;;;;;;;;;5067846;28;20139;-76
2022/02/13 12:34:59;;;;;;;2.72;1.00;;;;;;;;;;5051861;28;20079;-75
2022/02/13 12:37:44;;;;;;;2.72;1.00;;;;;;;;;;5052139;28;20124;-78
2022/02/13 12:40:10;;;;;;;3.38;0.65;;;;;;;;;;5052432;28;20079;-76
2022/02/13 12:42:38;;;;;;;3.38;0.95;;;;;;;;;;5067801;28;20028;-77
2022/02/13 12:45:08;;;;;;;2.13;0.82;;;;;;;;;;5051793;28;20723;-76
2022/02/13 12:47:37;;;;;;;7.38;2.15;;;;;;;;;;5051917;28;20147;-77
2022/02/13 12:50:05;;;;;;;2.22;0.95;;;;;;;;;;5068257;28;20072;-77
2022/02/13 12:52:32;;;;;;;1.75;0.50;;;;;;;;;;5052048;28;20119;-77
2022/02/13 12:54:58;;;;;;;2.88;0.93;;;;;;;;;;5051437;28;20127;-77
2022/02/13 12:57:27;;;;;;;3.50;0.75;;;;;;;;;;5051775;28;20360;-76
2022/02/13 12:59:54;;;;;;;1.35;0.85;;;;;;;;;;5051319;28;20040;-75
2022/02/13 13:02:23;;;;;;;5.53;1.75;;;;;;;;;;5067056;28;20064;-75
2022/02/13 13:04:50;;;;;;;2.78;1.00;;;;;;;;;;5066254;28;20062;-76
2022/02/13 13:07:17;;;;;;;1.33;0.70;;;;;;;;;;5051354;28;20029;-76
2022/02/13 13:09:44;;;;;;;3.30;0.73;;;;;;;;;;5050734;28;20116;-78